
Distance (Route):
Temperature : -24.1°C
Humidity : 56.1%
Pressure : 0hPa| Receiver | Frames | First received | Last received |
|---|---|---|---|
| KE7DJD | 350 | 2026-09-03 17:05:41 | 2026-09-03 19:52:34 |
| Receiver | Date | Latitude | Longitude | Direction | Speed | Altitude | Climb | Temperature | Humidity | Pressure | Voltage | Killtimer | Uptime | BKT | XDATA |
|---|---|---|---|---|---|---|---|---|---|---|---|---|---|---|---|
| KE7DJD | 2026-09-03 19:52:34 | 44.61090 | -114.61894 | 49° | 130km/h | 7614m | -2.9m/s | -24.1°C | 56.1% | 0hPa | 0V | 00:00:00 | 00:00:00 | 00:00:00 | |
| KE7DJD | 2026-09-03 19:52:03 | 44.60405 | -114.62922 | 47° | 137km/h | 7686m | -2.1m/s | -24.6°C | 66.9% | 0hPa | 0V | 07:22:00 | 00:00:00 | 00:00:00 | |
| KE7DJD | 2026-09-03 19:51:43 | 44.59954 | -114.63569 | 51° | 133km/h | 7726m | -1.9m/s | -24.7°C | 52.7% | 0hPa | 0V | 07:22:00 | 00:00:00 | 00:00:00 | |
| KE7DJD | 2026-09-03 19:50:41 | 44.58534 | -114.65578 | 44° | 133km/h | 7858m | -2.2m/s | -25.8°C | 42.2% | 0hPa | 0V | 07:23:00 | 00:00:00 | 00:00:00 | |
| KE7DJD | 2026-09-03 19:50:21 | 44.58105 | -114.66228 | 50° | 135km/h | 7903m | -2.4m/s | -26.0°C | 47.0% | 0hPa | 0V | 07:24:00 | 00:00:00 | 00:00:00 | |
| KE7DJD | 2026-09-03 19:50:00 | 44.57648 | -114.66929 | 53° | 133km/h | 7954m | -2.4m/s | -26.3°C | 50.5% | 0hPa | 0V | 07:24:00 | 00:00:00 | 00:00:00 | |
| KE7DJD | 2026-09-03 19:49:40 | 44.57203 | -114.67622 | 51° | 122km/h | 8003m | -2.4m/s | -26.8°C | 55.6% | 0hPa | 0V | 07:24:00 | 00:00:00 | 00:00:00 | |
| KE7DJD | 2026-09-03 19:49:19 | 44.56737 | -114.68381 | 45° | 135km/h | 8054m | -2.6m/s | -27.3°C | 57.3% | 0hPa | 0V | 07:25:00 | 00:00:00 | 00:00:00 | |
| KE7DJD | 2026-09-03 19:48:59 | 44.56296 | -114.69070 | 48° | 141km/h | 8105m | -2.5m/s | -27.7°C | 61.0% | 0hPa | 0V | 07:25:00 | 00:00:00 | 00:00:00 | |
| KE7DJD | 2026-09-03 19:48:38 | 44.55817 | -114.69769 | 51° | 135km/h | 8159m | -2.6m/s | -28.1°C | 65.1% | 0hPa | 0V | 07:25:00 | 00:00:00 | 00:00:00 | |
| KE7DJD | 2026-09-03 19:48:17 | 44.55326 | -114.70489 | 50° | 126km/h | 8213m | -2.6m/s | -28.5°C | 63.8% | 0hPa | 0V | 07:25:00 | 00:00:00 | 00:00:00 | |
| KE7DJD | 2026-09-03 19:47:56 | 44.54839 | -114.71225 | 45° | 128km/h | 8268m | -2.7m/s | -28.8°C | 46.8% | 0hPa | 0V | 07:26:00 | 00:00:00 | 00:00:00 | |
| KE7DJD | 2026-09-03 19:47:35 | 44.54360 | -114.71957 | 46° | 142km/h | 8325m | -2.7m/s | -29.2°C | 42.4% | 0hPa | 0V | 07:26:00 | 00:00:00 | 00:00:00 | |
| KE7DJD | 2026-09-03 19:47:14 | 44.53871 | -114.72645 | 50° | 124km/h | 8382m | -2.9m/s | -29.4°C | 36.5% | 0hPa | 0V | 07:26:00 | 00:00:00 | 00:00:00 | |
| KE7DJD | 2026-09-03 19:46:54 | 44.53412 | -114.73373 | 47° | 122km/h | 8440m | -2.7m/s | -29.4°C | 13.8% | 0hPa | 0V | 07:27:00 | 00:00:00 | 00:00:00 | |
| KE7DJD | 2026-09-03 19:46:33 | 44.53012 | -114.74046 | 51° | 135km/h | 8495m | -2.8m/s | -29.9°C | 8.1% | 0hPa | 0V | 07:27:00 | 00:00:00 | 00:00:00 | |
| KE7DJD | 2026-09-03 19:46:12 | 44.52574 | -114.74747 | 54° | 130km/h | 8552m | -2.8m/s | -30.3°C | 8.1% | 0hPa | 0V | 07:28:00 | 00:00:00 | 00:00:00 | |
| KE7DJD | 2026-09-03 19:45:52 | 44.52143 | -114.75435 | 52° | 120km/h | 8610m | -3.0m/s | -30.7°C | 8.6% | 0hPa | 0V | 07:28:00 | 00:00:00 | 00:00:00 | |
| KE7DJD | 2026-09-03 19:45:31 | 44.51691 | -114.76186 | 46° | 130km/h | 8672m | -2.9m/s | -31.2°C | 9.8% | 0hPa | 0V | 07:28:00 | 00:00:00 | 00:00:00 | |
| KE7DJD | 2026-09-03 19:45:11 | 44.51272 | -114.76869 | 50° | 137km/h | 8732m | -3.2m/s | -31.7°C | 10.4% | 0hPa | 0V | 07:29:00 | 00:00:00 | 00:00:00 | |
| KE7DJD | 2026-09-03 19:44:50 | 44.50815 | -114.77556 | 53° | 122km/h | 8797m | -3.1m/s | -32.0°C | 9.8% | 0hPa | 0V | 07:29:00 | 00:00:00 | 00:00:00 | |
| KE7DJD | 2026-09-03 19:44:29 | 44.50351 | -114.78290 | 47° | 122km/h | 8864m | -3.2m/s | -32.4°C | 9.2% | 0hPa | 0V | 07:30:00 | 00:00:00 | 00:00:00 | |
| KE7DJD | 2026-09-03 19:44:09 | 44.49918 | -114.78992 | 46° | 135km/h | 8929m | -3.3m/s | -33.0°C | 8.9% | 0hPa | 0V | 07:30:00 | 00:00:00 | 00:00:00 | |
| KE7DJD | 2026-09-03 19:43:49 | 44.49489 | -114.79684 | 51° | 141km/h | 8993m | -3.1m/s | -33.5°C | 9.3% | 0hPa | 0V | 07:30:00 | 00:00:00 | 00:00:00 | |
| KE7DJD | 2026-09-03 19:43:28 | 44.49023 | -114.80399 | 54° | 126km/h | 9060m | -3.3m/s | -33.9°C | 9.4% | 0hPa | 0V | 07:30:00 | 00:00:00 | 00:00:00 | |
| KE7DJD | 2026-09-03 19:43:07 | 44.48553 | -114.81136 | 48° | 122km/h | 9126m | -3.2m/s | -34.4°C | 10.0% | 0hPa | 0V | 07:30:00 | 00:00:00 | 00:00:00 | |
| KE7DJD | 2026-09-03 19:42:47 | 44.48119 | -114.81838 | 46° | 133km/h | 9186m | -3.0m/s | -35.1°C | 11.4% | 0hPa | 0V | 07:31:00 | 00:00:00 | 00:00:00 | |
| KE7DJD | 2026-09-03 19:42:26 | 44.47666 | -114.82549 | 49° | 139km/h | 9250m | -3.1m/s | -35.6°C | 11.8% | 0hPa | 0V | 07:31:00 | 00:00:00 | 00:00:00 | |
| KE7DJD | 2026-09-03 19:42:05 | 44.47199 | -114.83246 | 51° | 135km/h | 9313m | -3.1m/s | -36.0°C | 12.5% | 0hPa | 0V | 07:31:00 | 00:00:00 | 00:00:00 | |
| KE7DJD | 2026-09-03 19:41:44 | 44.46717 | -114.83954 | 52° | 128km/h | 9377m | -3.0m/s | -36.5°C | 12.6% | 0hPa | 0V | 07:32:00 | 00:00:00 | 00:00:00 | |
| KE7DJD | 2026-09-03 19:41:23 | 44.46221 | -114.84667 | 48° | 124km/h | 9439m | -2.9m/s | -37.0°C | 12.4% | 0hPa | 0V | 07:32:00 | 00:00:00 | 00:00:00 | |
| KE7DJD | 2026-09-03 19:41:02 | 44.45720 | -114.85382 | 44° | 126km/h | 9501m | -2.9m/s | -37.4°C | 12.6% | 0hPa | 0V | 07:33:00 | 00:00:00 | 00:00:00 | |
| KE7DJD | 2026-09-03 19:40:41 | 44.45221 | -114.86097 | 42° | 133km/h | 9563m | -3.0m/s | -38.0°C | 12.7% | 0hPa | 0V | 07:33:00 | 00:00:00 | 00:00:00 | |
| KE7DJD | 2026-09-03 19:40:20 | 44.44723 | -114.86808 | 45° | 144km/h | 9625m | -2.9m/s | -38.4°C | 12.9% | 0hPa | 0V | 07:33:00 | 00:00:00 | 00:00:00 | |
| KE7DJD | 2026-09-03 19:39:59 | 44.44210 | -114.87501 | 50° | 139km/h | 9689m | -3.1m/s | -38.7°C | 12.7% | 0hPa | 0V | 07:34:00 | 00:00:00 | 00:00:00 | |
| KE7DJD | 2026-09-03 19:39:38 | 44.43688 | -114.88221 | 50° | 137km/h | 9755m | -3.1m/s | -39.1°C | 10.0% | 0hPa | 0V | 07:34:00 | 00:00:00 | 00:00:00 | |
| KE7DJD | 2026-09-03 19:39:18 | 44.43140 | -114.88962 | 43° | 131km/h | 9820m | -3.2m/s | -39.6°C | 10.2% | 0hPa | 0V | 07:35:00 | 00:00:00 | 00:00:00 | |
| KE7DJD | 2026-09-03 19:38:57 | 44.42649 | -114.89665 | 43° | 148km/h | 9884m | -3.5m/s | -40.3°C | 11.2% | 0hPa | 0V | 07:35:00 | 00:00:00 | 00:00:00 | |
| KE7DJD | 2026-09-03 19:38:36 | 44.42121 | -114.90382 | 48° | 148km/h | 9954m | -3.4m/s | -40.8°C | 12.9% | 0hPa | 0V | 07:35:00 | 00:00:00 | 00:00:00 | |
| KE7DJD | 2026-09-03 19:38:15 | 44.41569 | -114.91106 | 49° | 137km/h | 10024m | -3.4m/s | -41.3°C | 13.3% | 0hPa | 0V | 07:36:00 | 00:00:00 | 00:00:00 | |
| KE7DJD | 2026-09-03 19:37:55 | 44.41050 | -114.91843 | 42° | 141km/h | 10091m | -3.4m/s | -41.8°C | 13.9% | 0hPa | 0V | 07:36:00 | 00:00:00 | 00:00:00 | |
| KE7DJD | 2026-09-03 19:37:34 | 44.40523 | -114.92612 | 46° | 155km/h | 10160m | -3.4m/s | -42.3°C | 15.1% | 0hPa | 0V | 07:36:00 | 00:00:00 | 00:00:00 | |
| KE7DJD | 2026-09-03 19:37:13 | 44.39975 | -114.93363 | 49° | 150km/h | 10228m | -3.2m/s | -42.7°C | 15.9% | 0hPa | 0V | 07:36:00 | 00:00:00 | 00:00:00 | |
| KE7DJD | 2026-09-03 19:36:53 | 44.39438 | -114.94092 | 49° | 142km/h | 10292m | -3.2m/s | -43.4°C | 18.6% | 0hPa | 0V | 07:37:00 | 00:00:00 | 00:00:00 | |
| KE7DJD | 2026-09-03 19:36:32 | 44.38883 | -114.94903 | 42° | 150km/h | 10356m | -3.1m/s | -43.9°C | 36.5% | 0hPa | 0V | 07:37:00 | 00:00:00 | 00:00:00 | |
| KE7DJD | 2026-09-03 19:36:12 | 44.38352 | -114.95647 | 44° | 159km/h | 10414m | -3.0m/s | -44.5°C | 55.1% | 0hPa | 0V | 07:37:00 | 00:00:00 | 00:00:00 | |
| KE7DJD | 2026-09-03 19:35:51 | 44.37777 | -114.96407 | 49° | 155km/h | 10476m | -3.0m/s | -44.6°C | 33.5% | 0hPa | 0V | 07:38:00 | 00:00:00 | 00:00:00 | |
| KE7DJD | 2026-09-03 19:35:30 | 44.37184 | -114.97182 | 47° | 144km/h | 10536m | -2.9m/s | -44.9°C | 26.0% | 0hPa | 0V | 07:38:00 | 00:00:00 | 00:00:00 | |
| KE7DJD | 2026-09-03 19:35:10 | 44.36619 | -114.97943 | 43° | 146km/h | 10595m | -3.0m/s | -45.4°C | 27.0% | 0hPa | 0V | 07:39:00 | 00:00:00 | 00:00:00 | |
| KE7DJD | 2026-09-03 19:34:49 | 44.36038 | -114.98760 | 42° | 159km/h | 10658m | -3.0m/s | -46.1°C | 28.9% | 0hPa | 0V | 07:39:00 | 00:00:00 | 00:00:00 | |
| KE7DJD | 2026-09-03 19:34:28 | 44.35463 | -114.99582 | 47° | 170km/h | 10724m | -3.3m/s | -46.5°C | 30.4% | 0hPa | 0V | 07:39:00 | 00:00:00 | 00:00:00 | |
| KE7DJD | 2026-09-03 19:34:07 | 44.34870 | -115.00422 | 50° | 162km/h | 10793m | -3.4m/s | -47.1°C | 32.1% | 0hPa | 0V | 07:40:00 | 00:00:00 | 00:00:00 | |
| KE7DJD | 2026-09-03 19:33:46 | 44.34251 | -115.01312 | 44° | 159km/h | 10867m | -3.6m/s | -47.7°C | 34.3% | 0hPa | 0V | 07:40:00 | 00:00:00 | 00:00:00 | |
| KE7DJD | 2026-09-03 19:33:25 | 44.33669 | -115.02182 | 45° | 168km/h | 10948m | -3.8m/s | -48.5°C | 27.0% | 0hPa | 0V | 07:41:00 | 00:00:00 | 00:00:00 | |
| KE7DJD | 2026-09-03 19:33:05 | 44.33116 | -115.02998 | 48° | 170km/h | 11027m | -3.9m/s | -49.0°C | 22.6% | 0hPa | 0V | 07:41:00 | 00:00:00 | 00:00:00 | |
| KE7DJD | 2026-09-03 19:32:44 | 44.32516 | -115.03825 | 51° | 151km/h | 11113m | -4.1m/s | -49.3°C | 20.4% | 0hPa | 0V | 07:41:00 | 00:00:00 | 00:00:00 | |
| KE7DJD | 2026-09-03 19:32:24 | 44.31959 | -115.04618 | 47° | 144km/h | 11194m | -4.0m/s | -49.9°C | 26.0% | 0hPa | 0V | 07:42:00 | 00:00:00 | 00:00:00 | |
| KE7DJD | 2026-09-03 19:32:03 | 44.31386 | -115.05458 | 42° | 155km/h | 11277m | -4.0m/s | -50.6°C | 27.3% | 0hPa | 0V | 07:42:00 | 00:00:00 | 00:00:00 | |
| KE7DJD | 2026-09-03 19:31:42 | 44.30818 | -115.06264 | 44° | 164km/h | 11356m | -3.9m/s | -51.1°C | 27.3% | 0hPa | 0V | 07:42:00 | 00:00:00 | 00:00:00 | |
| KE7DJD | 2026-09-03 19:31:21 | 44.30251 | -115.07053 | 48° | 162km/h | 11430m | -3.5m/s | -51.4°C | 26.4% | 0hPa | 0V | 07:42:00 | 00:00:00 | 00:00:00 | |
| KE7DJD | 2026-09-03 19:31:01 | 44.29695 | -115.07796 | 50° | 151km/h | 11496m | -3.4m/s | -51.4°C | 27.5% | 0hPa | 0V | 07:42:00 | 00:00:00 | 00:00:00 | |
| KE7DJD | 2026-09-03 19:30:41 | 44.29155 | -115.08569 | 52° | 146km/h | 11559m | -3.0m/s | -51.6°C | 22.1% | 0hPa | 0V | 07:43:00 | 00:00:00 | 00:00:00 | |
| KE7DJD | 2026-09-03 19:30:20 | 44.28596 | -115.09424 | 45° | 146km/h | 11621m | -3.0m/s | -51.6°C | 13.6% | 0hPa | 0V | 07:43:00 | 00:00:00 | 00:00:00 | |
| KE7DJD | 2026-09-03 19:30:00 | 44.28134 | -115.10210 | 51° | 157km/h | 11679m | -2.8m/s | -50.6°C | 11.9% | 0hPa | 0V | 07:44:00 | 00:00:00 | 00:00:00 | |
| KE7DJD | 2026-09-03 19:29:39 | 44.27660 | -115.11045 | 54° | 151km/h | 11738m | -2.9m/s | -50.8°C | 12.4% | 0hPa | 0V | 07:44:00 | 00:00:00 | 00:00:00 | |
| KE7DJD | 2026-09-03 19:29:19 | 44.27210 | -115.11816 | 56° | 144km/h | 11798m | -2.9m/s | -51.2°C | 12.5% | 0hPa | 0V | 07:44:00 | 00:00:00 | 00:00:00 | |
| KE7DJD | 2026-09-03 19:28:58 | 44.26732 | -115.12601 | 54° | 124km/h | 11862m | -3.3m/s | -51.4°C | 12.2% | 0hPa | 0V | 07:45:00 | 00:00:00 | 00:00:00 | |
| KE7DJD | 2026-09-03 19:28:37 | 44.26305 | -115.13392 | 52° | 122km/h | 11930m | -3.3m/s | -51.9°C | 12.0% | 0hPa | 0V | 07:45:00 | 00:00:00 | 00:00:00 | |
| KE7DJD | 2026-09-03 19:28:16 | 44.25981 | -115.14108 | 65° | 120km/h | 12005m | -3.8m/s | -49.9°C | 6.7% | 0hPa | 0V | 07:46:00 | 00:00:00 | 00:00:00 | |
| KE7DJD | 2026-09-03 19:27:56 | 44.25656 | -115.14790 | 59° | 100km/h | 12080m | -3.9m/s | -50.2°C | 5.5% | 0hPa | 0V | 07:46:00 | 00:00:00 | 00:00:00 | |
| KE7DJD | 2026-09-03 19:27:35 | 44.25353 | -115.15484 | 57° | 97km/h | 12161m | -4.1m/s | -50.2°C | 4.6% | 0hPa | 0V | 07:46:00 | 00:00:00 | 00:00:00 | |
| KE7DJD | 2026-09-03 19:27:14 | 44.25070 | -115.16149 | 53° | 106km/h | 12243m | -4.0m/s | -50.6°C | 4.2% | 0hPa | 0V | 07:47:00 | 00:00:00 | 00:00:00 | |
| KE7DJD | 2026-09-03 19:26:54 | 44.24808 | -115.16736 | 62° | 110km/h | 12319m | -3.7m/s | -50.7°C | 4.5% | 0hPa | 0V | 07:47:00 | 00:00:00 | 00:00:00 | |
| KE7DJD | 2026-09-03 19:26:33 | 44.24477 | -115.17315 | 57° | 89km/h | 12399m | -3.7m/s | -50.0°C | 3.6% | 0hPa | 0V | 07:47:00 | 00:00:00 | 00:00:00 | |
| KE7DJD | 2026-09-03 19:26:13 | 44.24142 | -115.17844 | 44° | 88km/h | 12475m | -3.9m/s | -50.2°C | 3.4% | 0hPa | 0V | 07:47:00 | 00:00:00 | 00:00:00 | |
| KE7DJD | 2026-09-03 19:25:52 | 44.23770 | -115.18379 | 37° | 100km/h | 12554m | -3.8m/s | -50.2°C | 3.2% | 0hPa | 0V | 07:47:00 | 00:00:00 | 00:00:00 | |
| KE7DJD | 2026-09-03 19:25:32 | 44.23406 | -115.18849 | 41° | 113km/h | 12630m | -4.0m/s | -50.5°C | 3.4% | 0hPa | 0V | 07:48:00 | 00:00:00 | 00:00:00 | |
| KE7DJD | 2026-09-03 19:25:12 | 44.23012 | -115.19290 | 45° | 110km/h | 12707m | -4.0m/s | -50.9°C | 3.6% | 0hPa | 0V | 07:48:00 | 00:00:00 | 00:00:00 | |
| KE7DJD | 2026-09-03 19:24:51 | 44.22577 | -115.19762 | 45° | 108km/h | 12789m | -4.0m/s | -51.1°C | 3.4% | 0hPa | 0V | 07:49:00 | 00:00:00 | 00:00:00 | |
| KE7DJD | 2026-09-03 19:24:31 | 44.22125 | -115.20212 | 35° | 95km/h | 12867m | -3.8m/s | -51.1°C | 3.2% | 0hPa | 0V | 07:49:00 | 00:00:00 | 00:00:00 | |
| KE7DJD | 2026-09-03 19:24:10 | 44.21661 | -115.20696 | 32° | 102km/h | 12951m | -4.0m/s | -51.9°C | 3.5% | 0hPa | 0V | 07:49:00 | 00:00:00 | 00:00:00 | |
| KE7DJD | 2026-09-03 19:23:50 | 44.21223 | -115.21163 | 31° | 110km/h | 13030m | -3.7m/s | -52.6°C | 3.6% | 0hPa | 0V | 07:50:00 | 00:00:00 | 00:00:00 | |
| KE7DJD | 2026-09-03 19:23:29 | 44.20766 | -115.21673 | 34° | 119km/h | 13116m | -4.0m/s | -53.1°C | 3.6% | 0hPa | 0V | 07:50:00 | 00:00:00 | 00:00:00 | |
| KE7DJD | 2026-09-03 19:23:08 | 44.20296 | -115.22228 | 36° | 124km/h | 13201m | -4.0m/s | -53.7°C | 3.4% | 0hPa | 0V | 07:51:00 | 00:00:00 | 00:00:00 | |
| KE7DJD | 2026-09-03 19:22:47 | 44.19831 | -115.22841 | 44° | 139km/h | 13288m | -4.1m/s | -53.9°C | 3.1% | 0hPa | 0V | 07:51:00 | 00:00:00 | 00:00:00 | |
| KE7DJD | 2026-09-03 19:22:27 | 44.19404 | -115.23469 | 57° | 124km/h | 13369m | -4.3m/s | -53.4°C | 2.6% | 0hPa | 0V | 07:51:00 | 00:00:00 | 00:00:00 | |
| KE7DJD | 2026-09-03 19:22:06 | 44.18999 | -115.24229 | 58° | 111km/h | 13453m | -4.1m/s | -51.9°C | 2.1% | 0hPa | 0V | 07:52:00 | 00:00:00 | 00:00:00 | |
| KE7DJD | 2026-09-03 19:21:46 | 44.18686 | -115.24973 | 57° | 111km/h | 13533m | -4.0m/s | -52.2°C | 2.0% | 0hPa | 0V | 07:52:00 | 00:00:00 | 00:00:00 | |
| KE7DJD | 2026-09-03 19:21:25 | 44.18439 | -115.25712 | 64° | 122km/h | 13618m | -4.0m/s | -50.5°C | 1.6% | 0hPa | 0V | 07:53:00 | 00:00:00 | 00:00:00 | |
| KE7DJD | 2026-09-03 19:21:05 | 44.18220 | -115.26406 | 70° | 124km/h | 13698m | -4.0m/s | -50.7°C | 1.7% | 0hPa | 0V | 07:53:00 | 00:00:00 | 00:00:00 | |
| KE7DJD | 2026-09-03 19:20:44 | 44.17978 | -115.27165 | 71° | 124km/h | 13781m | -3.9m/s | -51.1°C | 1.7% | 0hPa | 0V | 07:53:00 | 00:00:00 | 00:00:00 | |
| KE7DJD | 2026-09-03 19:20:23 | 44.17716 | -115.27949 | 72° | 124km/h | 13868m | -4.2m/s | -51.7°C | 1.8% | 0hPa | 0V | 07:53:00 | 00:00:00 | 00:00:00 | |
| KE7DJD | 2026-09-03 19:20:03 | 44.17467 | -115.28692 | 72° | 115km/h | 13959m | -4.3m/s | -51.7°C | 1.8% | 0hPa | 0V | 07:53:00 | 00:00:00 | 00:00:00 | |
| KE7DJD | 2026-09-03 19:19:42 | 44.17226 | -115.29342 | 71° | 95km/h | 14044m | -4.3m/s | -52.2°C | 1.7% | 0hPa | 0V | 07:54:00 | 00:00:00 | 00:00:00 | |
| KE7DJD | 2026-09-03 19:19:22 | 44.16971 | -115.29958 | 64° | 86km/h | 14133m | -4.5m/s | -52.5°C | 1.8% | 0hPa | 0V | 07:54:00 | 00:00:00 | 00:00:00 | |
| KE7DJD | 2026-09-03 19:19:01 | 44.16715 | -115.30598 | 57° | 82km/h | 14226m | -4.5m/s | -52.0°C | 1.6% | 0hPa | 0V | 07:55:00 | 00:00:00 | 00:00:00 | |
| KE7DJD | 2026-09-03 19:18:41 | 44.16506 | -115.31143 | 55° | 77km/h | 14316m | -4.4m/s | -52.0°C | 1.6% | 0hPa | 0V | 07:55:00 | 00:00:00 | 00:00:00 | |
| KE7DJD | 2026-09-03 19:18:21 | 44.16314 | -115.31656 | 53° | 78km/h | 14407m | -4.6m/s | -52.5°C | 1.7% | 0hPa | 0V | 07:55:00 | 00:00:00 | 00:00:00 | |
| KE7DJD | 2026-09-03 19:18:00 | 44.16134 | -115.32173 | 55° | 78km/h | 14503m | -4.8m/s | -53.1°C | 1.8% | 0hPa | 0V | 07:56:00 | 00:00:00 | 00:00:00 | |
| KE7DJD | 2026-09-03 19:17:40 | 44.15980 | -115.32652 | 57° | 78km/h | 14596m | -4.8m/s | -53.9°C | 1.9% | 0hPa | 0V | 07:56:00 | 00:00:00 | 00:00:00 | |
| KE7DJD | 2026-09-03 19:17:20 | 44.15833 | -115.33114 | 59° | 80km/h | 14690m | -4.7m/s | -54.9°C | 2.0% | 0hPa | 0V | 07:57:00 | 00:00:00 | 00:00:00 | |
| KE7DJD | 2026-09-03 19:16:59 | 44.15701 | -115.33609 | 63° | 82km/h | 14789m | -4.8m/s | -55.4°C | 2.1% | 0hPa | 0V | 07:57:00 | 00:00:00 | 00:00:00 | |
| KE7DJD | 2026-09-03 19:16:39 | 44.15579 | -115.34086 | 61° | 82km/h | 14882m | -4.7m/s | -55.9°C | 2.1% | 0hPa | 0V | 07:57:00 | 00:00:00 | 00:00:00 | |
| KE7DJD | 2026-09-03 19:16:19 | 44.15429 | -115.34542 | 58° | 84km/h | 14976m | -4.7m/s | -56.6°C | 2.1% | 0hPa | 0V | 07:58:00 | 00:00:00 | 00:00:00 | |
| KE7DJD | 2026-09-03 19:15:58 | 44.15233 | -115.35032 | 57° | 93km/h | 15075m | -4.8m/s | -56.6°C | 2.0% | 0hPa | 0V | 07:58:00 | 00:00:00 | 00:00:00 | |
| KE7DJD | 2026-09-03 19:15:38 | 44.15049 | -115.35526 | 69° | 95km/h | 15171m | -4.9m/s | -56.1°C | 2.1% | 0hPa | 0V | 07:59:00 | 00:00:00 | 00:00:00 | |
| KE7DJD | 2026-09-03 19:15:17 | 44.14876 | -115.36008 | 67° | 82km/h | 15274m | -4.8m/s | -55.5°C | 1.9% | 0hPa | 0V | 07:59:00 | 00:00:00 | 00:00:00 | |
| KE7DJD | 2026-09-03 19:14:57 | 44.14678 | -115.36423 | 58° | 80km/h | 15377m | -4.7m/s | -55.9°C | 1.9% | 0hPa | 0V | 07:59:00 | 00:00:00 | 00:00:00 | |
| KE7DJD | 2026-09-03 19:14:36 | 44.14439 | -115.36790 | 61° | 77km/h | 15474m | -5.0m/s | -55.8°C | 1.7% | 0hPa | 0V | 07:59:00 | 00:00:00 | 00:00:00 | |
| KE7DJD | 2026-09-03 19:14:16 | 44.14205 | -115.37187 | 65° | 78km/h | 15574m | -5.1m/s | -55.8°C | 1.7% | 0hPa | 0V | 07:59:00 | 00:00:00 | 00:00:00 | |
| KE7DJD | 2026-09-03 19:13:55 | 44.13980 | -115.37628 | 64° | 82km/h | 15678m | -4.7m/s | -55.6°C | 1.6% | 0hPa | 0V | 08:00:00 | 00:00:00 | 00:00:00 | |
| KE7DJD | 2026-09-03 19:13:35 | 44.13766 | -115.38045 | 60° | 86km/h | 15777m | -5.0m/s | -55.6°C | 1.5% | 0hPa | 0V | 08:00:00 | 00:00:00 | 00:00:00 | |
| KE7DJD | 2026-09-03 19:13:14 | 44.13570 | -115.38432 | 67° | 75km/h | 15879m | -4.8m/s | -55.7°C | 1.5% | 0hPa | 0V | 08:00:00 | 00:00:00 | 00:00:00 | |
| KE7DJD | 2026-09-03 19:12:53 | 44.13369 | -115.38801 | 64° | 69km/h | 15982m | -4.8m/s | -55.5°C | 1.5% | 0hPa | 0V | 08:01:00 | 00:00:00 | 00:00:00 | |
| KE7DJD | 2026-09-03 19:12:33 | 44.13122 | -115.39130 | 54° | 53km/h | 16078m | -5.0m/s | -55.7°C | 1.4% | 0hPa | 0V | 08:01:00 | 00:00:00 | 00:00:00 | |
| KE7DJD | 2026-09-03 19:12:12 | 44.12883 | -115.39482 | 54° | 55km/h | 16181m | -4.8m/s | -55.8°C | 1.5% | 0hPa | 0V | 00:00:00 | 00:00:00 | 00:00:00 | |
| KE7DJD | 2026-09-03 19:11:51 | 44.12601 | -115.39831 | 41° | 57km/h | 16284m | -4.8m/s | -55.0°C | 1.3% | 0hPa | 0V | 00:00:00 | 00:00:00 | 00:00:00 | |
| KE7DJD | 2026-09-03 19:11:31 | 44.12326 | -115.40233 | 48° | 62km/h | 16387m | -4.8m/s | -54.9°C | 0.9% | 0hPa | 0V | 00:00:00 | 00:00:00 | 00:00:00 | |
| KE7DJD | 2026-09-03 18:30:00 | 44.06104 | -115.40147 | 268° | 33km/h | 27604m | 5.5m/s | -50.0°C | 0.9% | 0hPa | 0V | 00:00:00 | 00:00:00 | 00:00:00 | |
| KE7DJD | 2026-09-03 18:29:39 | 44.06103 | -115.39932 | 263° | 24km/h | 27482m | 7.6m/s | -49.6°C | 0.9% | 0hPa | 0V | 00:00:00 | 00:00:00 | 00:00:00 | |
| KE7DJD | 2026-09-03 18:29:18 | 44.06107 | -115.39727 | 247° | 18km/h | 27354m | 7.1m/s | -49.2°C | 0.8% | 0hPa | 0V | 00:00:00 | 00:00:00 | 00:00:00 | |
| KE7DJD | 2026-09-03 18:28:57 | 44.06105 | -115.39587 | 307° | 24km/h | 27226m | 6.6m/s | -49.3°C | 0.9% | 0hPa | 0V | 00:00:00 | 00:00:00 | 00:00:00 | |
| KE7DJD | 2026-09-03 18:28:35 | 44.06145 | -115.39411 | 243° | 29km/h | 27090m | 5.2m/s | -48.7°C | 0.9% | 0hPa | 0V | 00:00:00 | 00:00:00 | 00:00:00 | |
| KE7DJD | 2026-09-03 18:28:14 | 44.06195 | -115.39232 | 271° | 18km/h | 26959m | 5.5m/s | -48.6°C | 0.8% | 0hPa | 0V | 00:00:00 | 00:00:00 | 00:00:00 | |
| KE7DJD | 2026-09-03 18:27:53 | 44.06216 | -115.39099 | 307° | 20km/h | 26824m | 5.0m/s | -48.3°C | 0.8% | 0hPa | 0V | 00:00:00 | 00:00:00 | 00:00:00 | |
| KE7DJD | 2026-09-03 18:27:30 | 44.06223 | -115.39012 | 354° | 15km/h | 26682m | 6.2m/s | -48.4°C | 0.8% | 0hPa | 0V | 00:00:00 | 00:00:00 | 00:00:00 | |
| KE7DJD | 2026-09-03 18:27:09 | 44.06172 | -115.38979 | 3° | 18km/h | 26553m | 5.6m/s | -48.8°C | 0.9% | 0hPa | 0V | 00:00:00 | 00:00:00 | 00:00:00 | |
| KE7DJD | 2026-09-03 18:26:47 | 44.06066 | -115.38903 | 339° | 26km/h | 26417m | 5.1m/s | -49.7°C | 0.8% | 0hPa | 0V | 00:00:00 | 00:00:00 | 00:00:00 | |
| KE7DJD | 2026-09-03 18:26:27 | 44.05982 | -115.38750 | 288° | 29km/h | 26288m | 6.4m/s | -50.3°C | 0.9% | 0hPa | 0V | 00:00:00 | 00:00:00 | 00:00:00 | |
| KE7DJD | 2026-09-03 18:25:58 | 44.05953 | -115.38422 | 284° | 38km/h | 26116m | 7.6m/s | -50.2°C | 0.9% | 0hPa | 0V | 00:00:00 | 00:00:00 | 00:00:00 | |
| KE7DJD | 2026-09-03 18:25:28 | 44.05933 | -115.38069 | 295° | 27km/h | 25937m | 4.6m/s | -49.9°C | 0.9% | 0hPa | 0V | 00:00:00 | 00:00:00 | 00:00:00 | |
| KE7DJD | 2026-09-03 18:24:47 | 44.05911 | -115.37556 | 243° | 40km/h | 25692m | 5.8m/s | -49.8°C | 0.9% | 0hPa | 0V | 00:00:00 | 00:00:00 | 00:00:00 | |
| KE7DJD | 2026-09-03 18:24:26 | 44.05968 | -115.37341 | 232° | 42km/h | 25565m | 6.1m/s | -49.6°C | 0.9% | 0hPa | 0V | 00:00:00 | 00:00:00 | 00:00:00 | |
| KE7DJD | 2026-09-03 18:24:05 | 44.06022 | -115.37202 | 198° | 16km/h | 25440m | 5.7m/s | -50.0°C | 0.9% | 0hPa | 0V | 00:00:00 | 00:00:00 | 00:00:00 | |
| KE7DJD | 2026-09-03 18:23:44 | 44.06080 | -115.37121 | 238° | 13km/h | 25312m | 7.3m/s | -50.1°C | 0.9% | 0hPa | 0V | 00:00:00 | 00:00:00 | 00:00:00 | |
| KE7DJD | 2026-09-03 18:23:17 | 44.06148 | -115.36959 | 234° | 37km/h | 25144m | 5.6m/s | -51.1°C | 1.0% | 0hPa | 0V | 00:00:00 | 00:00:00 | 00:00:00 | |
| KE7DJD | 2026-09-03 18:22:57 | 44.06245 | -115.36858 | 200° | 16km/h | 25022m | 7.2m/s | -51.3°C | 1.0% | 0hPa | 0V | 00:00:00 | 00:00:00 | 00:00:00 | |
| KE7DJD | 2026-09-03 18:22:36 | 44.06291 | -115.36803 | 173° | 7km/h | 24900m | 5.5m/s | -52.0°C | 1.0% | 0hPa | 0V | 00:00:00 | 00:00:00 | 00:00:00 | |
| KE7DJD | 2026-09-03 18:22:09 | 44.06379 | -115.36761 | 174° | 4km/h | 24745m | 5.1m/s | -52.4°C | 1.1% | 0hPa | 0V | 00:00:00 | 00:00:00 | 00:00:00 | |
| KE7DJD | 2026-09-03 18:21:45 | 44.06384 | -115.36724 | 245° | 13km/h | 24615m | 5.3m/s | -52.8°C | 1.1% | 0hPa | 0V | 00:00:00 | 00:00:00 | 00:00:00 | |
| KE7DJD | 2026-09-03 18:21:19 | 44.06400 | -115.36703 | 358° | 22km/h | 24479m | 4.7m/s | -53.0°C | 1.0% | 0hPa | 0V | 00:00:00 | 00:00:00 | 00:00:00 | |
| KE7DJD | 2026-09-03 18:20:58 | 44.06365 | -115.36686 | 340° | 20km/h | 24367m | 6.4m/s | -53.0°C | 1.1% | 0hPa | 0V | 00:00:00 | 00:00:00 | 00:00:00 | |
| KE7DJD | 2026-09-03 18:20:37 | 44.06343 | -115.36632 | 313° | 26km/h | 24253m | 4.7m/s | -52.6°C | 1.0% | 0hPa | 0V | 00:00:00 | 00:00:00 | 00:00:00 | |
| KE7DJD | 2026-09-03 18:20:17 | 44.06315 | -115.36552 | 289° | 20km/h | 24141m | 6.3m/s | -53.5°C | 1.1% | 0hPa | 0V | 00:00:00 | 00:00:00 | 00:00:00 | |
| KE7DJD | 2026-09-03 18:19:47 | 44.06349 | -115.36424 | 185° | 13km/h | 23987m | 3.7m/s | -53.9°C | 1.2% | 0hPa | 0V | 00:00:00 | 00:00:00 | 00:00:00 | |
| KE7DJD | 2026-09-03 18:19:20 | 44.06414 | -115.36352 | 254° | 20km/h | 23835m | 6.1m/s | -54.5°C | 1.2% | 0hPa | 0V | 00:00:00 | 00:00:00 | 00:00:00 | |
| KE7DJD | 2026-09-03 18:19:00 | 44.06435 | -115.36349 | 323° | 4km/h | 23726m | 6.7m/s | -54.0°C | 1.2% | 0hPa | 0V | 00:00:00 | 00:00:00 | 00:00:00 | |
| KE7DJD | 2026-09-03 18:18:39 | 44.06388 | -115.36356 | 323° | 18km/h | 23606m | 5.0m/s | -54.3°C | 1.2% | 0hPa | 0V | 00:00:00 | 00:00:00 | 00:00:00 | |
| KE7DJD | 2026-09-03 18:18:18 | 44.06366 | -115.36362 | 347° | 9km/h | 23485m | 5.4m/s | -53.9°C | 1.2% | 0hPa | 0V | 00:00:00 | 00:00:00 | 00:00:00 | |
| KE7DJD | 2026-09-03 18:17:57 | 44.06337 | -115.36342 | 311° | 5km/h | 23362m | 7.0m/s | -54.2°C | 1.3% | 0hPa | 0V | 00:00:00 | 00:00:00 | 00:00:00 | |
| KE7DJD | 2026-09-03 18:17:36 | 44.06284 | -115.36255 | 333° | 20km/h | 23239m | 6.8m/s | -54.2°C | 1.2% | 0hPa | 0V | 00:00:00 | 00:00:00 | 00:00:00 | |
| KE7DJD | 2026-09-03 18:17:15 | 44.06232 | -115.36155 | 300° | 29km/h | 23118m | 4.9m/s | -54.0°C | 1.2% | 0hPa | 0V | 00:00:00 | 00:00:00 | 00:00:00 | |
| KE7DJD | 2026-09-03 18:16:54 | 44.06224 | -115.36014 | 268° | 22km/h | 22998m | 6.9m/s | -53.0°C | 1.2% | 0hPa | 0V | 00:00:00 | 00:00:00 | 00:00:00 | |
| KE7DJD | 2026-09-03 18:16:33 | 44.06264 | -115.35823 | 252° | 42km/h | 22884m | 6.6m/s | -53.3°C | 1.2% | 0hPa | 0V | 00:00:00 | 00:00:00 | 00:00:00 | |
| KE7DJD | 2026-09-03 18:16:12 | 44.06356 | -115.35674 | 219° | 27km/h | 22772m | 3.0m/s | -53.9°C | 1.2% | 0hPa | 0V | 00:00:00 | 00:00:00 | 00:00:00 | |
| KE7DJD | 2026-09-03 18:15:49 | 44.06405 | -115.35625 | 273° | 16km/h | 22643m | 5.1m/s | -53.6°C | 1.2% | 0hPa | 0V | 00:00:00 | 00:00:00 | 00:00:00 | |
| KE7DJD | 2026-09-03 18:15:29 | 44.06409 | -115.35584 | 282° | 11km/h | 22529m | 4.9m/s | -54.3°C | 1.3% | 0hPa | 0V | 00:00:00 | 00:00:00 | 00:00:00 | |
| KE7DJD | 2026-09-03 18:15:07 | 44.06361 | -115.35485 | 331° | 22km/h | 22420m | 6.9m/s | -54.0°C | 1.2% | 0hPa | 0V | 00:00:00 | 00:00:00 | 00:00:00 | |
| KE7DJD | 2026-09-03 18:14:47 | 44.06288 | -115.35317 | 295° | 31km/h | 22311m | 5.6m/s | -53.6°C | 1.2% | 0hPa | 0V | 00:00:00 | 00:00:00 | 00:00:00 | |
| KE7DJD | 2026-09-03 18:14:27 | 44.06236 | -115.35126 | 280° | 27km/h | 22203m | 6.5m/s | -52.9°C | 1.2% | 0hPa | 0V | 00:00:00 | 00:00:00 | 00:00:00 | |
| KE7DJD | 2026-09-03 18:14:06 | 44.06212 | -115.34962 | 301° | 35km/h | 22088m | 5.3m/s | -52.6°C | 1.1% | 0hPa | 0V | 00:00:00 | 00:00:00 | 00:00:00 | |
| KE7DJD | 2026-09-03 18:13:45 | 44.06228 | -115.34817 | 240° | 29km/h | 21976m | 4.7m/s | -52.7°C | 1.1% | 0hPa | 0V | 00:00:00 | 00:00:00 | 00:00:00 | |
| KE7DJD | 2026-09-03 18:13:25 | 44.06239 | -115.34732 | 1° | 11km/h | 21866m | 6.8m/s | -54.1°C | 1.2% | 0hPa | 0V | 00:00:00 | 00:00:00 | 00:00:00 | |
| KE7DJD | 2026-09-03 18:13:04 | 44.06144 | -115.34670 | 300° | 22km/h | 21744m | 8.6m/s | -54.6°C | 1.3% | 0hPa | 0V | 00:00:00 | 00:00:00 | 00:00:00 | |
| KE7DJD | 2026-09-03 18:12:43 | 44.06099 | -115.34586 | 272° | 13km/h | 21619m | 6.4m/s | -53.3°C | 1.2% | 0hPa | 0V | 00:00:00 | 00:00:00 | 00:00:00 | |
| KE7DJD | 2026-09-03 18:12:22 | 44.06090 | -115.34511 | 240° | 27km/h | 21492m | 7.1m/s | -53.4°C | 1.2% | 0hPa | 0V | 00:00:00 | 00:00:00 | 00:00:00 | |
| KE7DJD | 2026-09-03 18:12:01 | 44.06146 | -115.34451 | 178° | 20km/h | 21371m | 5.2m/s | -53.0°C | 1.2% | 0hPa | 0V | 00:00:00 | 00:00:00 | 00:00:00 | |
| KE7DJD | 2026-09-03 18:11:41 | 44.06171 | -115.34467 | 120° | 15km/h | 21245m | 6.0m/s | -53.9°C | 1.3% | 0hPa | 0V | 00:00:00 | 00:00:00 | 00:00:00 | |
| KE7DJD | 2026-09-03 18:11:20 | 44.06134 | -115.34544 | 25° | 15km/h | 21126m | 4.8m/s | -54.2°C | 1.3% | 0hPa | 0V | 00:00:00 | 00:00:00 | 00:00:00 | |
| KE7DJD | 2026-09-03 18:10:59 | 44.06055 | -115.34656 | 358° | 31km/h | 21005m | 5.1m/s | -53.9°C | 1.3% | 0hPa | 0V | 00:00:00 | 00:00:00 | 00:00:00 | |
| KE7DJD | 2026-09-03 18:10:38 | 44.05910 | -115.34707 | 356° | 33km/h | 20886m | 5.7m/s | -53.9°C | 1.3% | 0hPa | 0V | 00:00:00 | 00:00:00 | 00:00:00 | |
| KE7DJD | 2026-09-03 18:10:19 | 44.05728 | -115.34707 | 358° | 44km/h | 20774m | 5.5m/s | -54.0°C | 1.3% | 0hPa | 0V | 00:00:00 | 00:00:00 | 00:00:00 | |
| KE7DJD | 2026-09-03 18:09:57 | 44.05548 | -115.34646 | 349° | 26km/h | 20665m | 5.0m/s | -53.4°C | 1.3% | 0hPa | 0V | 00:00:00 | 00:00:00 | 00:00:00 | |
| KE7DJD | 2026-09-03 18:09:36 | 44.05384 | -115.34597 | 352° | 35km/h | 20559m | 6.4m/s | -53.1°C | 1.3% | 0hPa | 0V | 00:00:00 | 00:00:00 | 00:00:00 | |
| KE7DJD | 2026-09-03 18:09:16 | 44.05249 | -115.34562 | 342° | 26km/h | 20454m | 5.7m/s | -53.1°C | 1.3% | 0hPa | 0V | 00:00:00 | 00:00:00 | 00:00:00 | |
| KE7DJD | 2026-09-03 18:08:56 | 44.05126 | -115.34518 | 331° | 24km/h | 20351m | 5.3m/s | -52.9°C | 1.3% | 0hPa | 0V | 00:00:00 | 00:00:00 | 00:00:00 | |
| KE7DJD | 2026-09-03 18:08:35 | 44.05020 | -115.34489 | 328° | 13km/h | 20246m | 4.9m/s | -52.9°C | 1.3% | 0hPa | 0V | 00:00:00 | 00:00:00 | 00:00:00 | |
| KE7DJD | 2026-09-03 18:08:14 | 44.04966 | -115.34467 | 11° | 18km/h | 20134m | 6.2m/s | -52.1°C | 1.2% | 0hPa | 0V | 00:00:00 | 00:00:00 | 00:00:00 | |
| KE7DJD | 2026-09-03 18:07:53 | 44.04950 | -115.34482 | 46° | 9km/h | 20025m | 5.4m/s | -52.1°C | 1.2% | 0hPa | 0V | 00:00:00 | 00:00:00 | 00:00:00 | |
| KE7DJD | 2026-09-03 18:07:32 | 44.04982 | -115.34553 | 120° | 11km/h | 19911m | 6.3m/s | -51.5°C | 1.2% | 0hPa | 0V | 00:00:00 | 00:00:00 | 00:00:00 | |
| KE7DJD | 2026-09-03 18:07:11 | 44.05025 | -115.34586 | 109° | 20km/h | 19800m | 5.8m/s | -51.1°C | 1.1% | 0hPa | 0V | 00:00:00 | 00:00:00 | 00:00:00 | |
| KE7DJD | 2026-09-03 18:06:51 | 44.05046 | -115.34694 | 73° | 15km/h | 19692m | 6.0m/s | -52.3°C | 1.2% | 0hPa | 0V | 00:00:00 | 00:00:00 | 00:00:00 | |
| KE7DJD | 2026-09-03 18:06:31 | 44.05035 | -115.34828 | 43° | 22km/h | 19588m | 4.6m/s | -52.8°C | 1.2% | 0hPa | 0V | 00:00:00 | 00:00:00 | 00:00:00 | |
| KE7DJD | 2026-09-03 18:06:10 | 44.05001 | -115.34993 | 60° | 22km/h | 19479m | 5.2m/s | -54.3°C | 1.3% | 0hPa | 0V | 00:00:00 | 00:00:00 | 00:00:00 | |
| KE7DJD | 2026-09-03 18:05:50 | 44.04930 | -115.35110 | 36° | 22km/h | 19374m | 5.9m/s | -54.8°C | 1.4% | 0hPa | 0V | 00:00:00 | 00:00:00 | 00:00:00 | |
| KE7DJD | 2026-09-03 18:05:30 | 44.04856 | -115.35203 | 37° | 13km/h | 19273m | 3.9m/s | -55.7°C | 1.4% | 0hPa | 0V | 00:00:00 | 00:00:00 | 00:00:00 | |
| KE7DJD | 2026-09-03 18:05:09 | 44.04756 | -115.35322 | 35° | 29km/h | 19167m | 3.5m/s | -55.5°C | 1.5% | 0hPa | 0V | 00:00:00 | 00:00:00 | 00:00:00 | |
| KE7DJD | 2026-09-03 18:04:48 | 44.04600 | -115.35429 | 13° | 37km/h | 19057m | 6.0m/s | -55.7°C | 1.5% | 0hPa | 0V | 00:00:00 | 00:00:00 | 00:00:00 | |
| KE7DJD | 2026-09-03 18:04:29 | 44.04422 | -115.35539 | 22° | 38km/h | 18956m | 5.3m/s | -55.7°C | 1.5% | 0hPa | 0V | 00:00:00 | 00:00:00 | 00:00:00 | |
| KE7DJD | 2026-09-03 18:04:07 | 44.04221 | -115.35586 | 12° | 37km/h | 18846m | 6.3m/s | -55.1°C | 1.4% | 0hPa | 0V | 00:00:00 | 00:00:00 | 00:00:00 | |
| KE7DJD | 2026-09-03 18:03:46 | 44.04032 | -115.35577 | 341° | 38km/h | 18735m | 3.9m/s | -54.3°C | 1.4% | 0hPa | 0V | 00:00:00 | 00:00:00 | 00:00:00 | |
| KE7DJD | 2026-09-03 18:03:25 | 44.03834 | -115.35538 | 11° | 27km/h | 18626m | 4.4m/s | -53.8°C | 1.4% | 0hPa | 0V | 00:00:00 | 00:00:00 | 00:00:00 | |
| KE7DJD | 2026-09-03 18:03:04 | 44.03678 | -115.35482 | 344° | 24km/h | 18517m | 6.4m/s | -53.1°C | 1.3% | 0hPa | 0V | 00:00:00 | 00:00:00 | 00:00:00 | |
| KE7DJD | 2026-09-03 18:02:43 | 44.03568 | -115.35430 | 339° | 11km/h | 18404m | 6.6m/s | -53.8°C | 1.3% | 0hPa | 0V | 00:00:00 | 00:00:00 | 00:00:00 | |
| KE7DJD | 2026-09-03 18:02:22 | 44.03498 | -115.35425 | 5° | 11km/h | 18296m | 4.3m/s | -54.5°C | 1.4% | 0hPa | 0V | 00:00:00 | 00:00:00 | 00:00:00 | |
| KE7DJD | 2026-09-03 18:02:01 | 44.03462 | -115.35495 | 77° | 18km/h | 18177m | 7.1m/s | -54.1°C | 1.4% | 0hPa | 0V | 00:00:00 | 00:00:00 | 00:00:00 | |
| KE7DJD | 2026-09-03 18:01:40 | 44.03421 | -115.35604 | 95° | 24km/h | 18060m | 3.7m/s | -54.2°C | 1.4% | 0hPa | 0V | 00:00:00 | 00:00:00 | 00:00:00 | |
| KE7DJD | 2026-09-03 18:01:20 | 44.03356 | -115.35707 | 26° | 24km/h | 17958m | 5.6m/s | -54.6°C | 1.4% | 0hPa | 0V | 00:00:00 | 00:00:00 | 00:00:00 | |
| KE7DJD | 2026-09-03 18:00:59 | 44.03286 | -115.35828 | 68° | 26km/h | 17852m | 5.2m/s | -54.4°C | 1.5% | 0hPa | 0V | 00:00:00 | 00:00:00 | 00:00:00 | |
| KE7DJD | 2026-09-03 18:00:38 | 44.03204 | -115.35940 | 65° | 24km/h | 17746m | 4.7m/s | -54.1°C | 1.4% | 0hPa | 0V | 00:00:00 | 00:00:00 | 00:00:00 | |
| KE7DJD | 2026-09-03 18:00:18 | 44.03097 | -115.36074 | 43° | 35km/h | 17645m | 5.4m/s | -54.1°C | 1.5% | 0hPa | 0V | 00:00:00 | 00:00:00 | 00:00:00 | |
| KE7DJD | 2026-09-03 17:59:57 | 44.02956 | -115.36223 | 39° | 35km/h | 17541m | 6.1m/s | -53.5°C | 1.4% | 0hPa | 0V | 00:00:00 | 00:00:00 | 00:00:00 | |
| KE7DJD | 2026-09-03 17:59:37 | 44.02840 | -115.36341 | 37° | 35km/h | 17437m | 4.1m/s | -52.4°C | 1.4% | 0hPa | 0V | 00:00:00 | 00:00:00 | 00:00:00 | |
| KE7DJD | 2026-09-03 17:59:15 | 44.02732 | -115.36481 | 63° | 24km/h | 17331m | 6.2m/s | -51.9°C | 1.3% | 0hPa | 0V | 00:00:00 | 00:00:00 | 00:00:00 | |
| KE7DJD | 2026-09-03 17:58:54 | 44.02606 | -115.36696 | 57° | 44km/h | 17222m | 5.9m/s | -52.8°C | 1.4% | 0hPa | 0V | 00:00:00 | 00:00:00 | 00:00:00 | |
| KE7DJD | 2026-09-03 17:58:33 | 44.02446 | -115.36953 | 57° | 37km/h | 17115m | 5.3m/s | -52.9°C | 1.3% | 0hPa | 0V | 00:00:00 | 00:00:00 | 00:00:00 | |
| KE7DJD | 2026-09-03 17:58:14 | 44.02287 | -115.37203 | 39° | 55km/h | 17016m | 4.6m/s | -54.3°C | 1.6% | 0hPa | 0V | 00:00:00 | 00:00:00 | 00:00:00 | |
| KE7DJD | 2026-09-03 17:57:52 | 44.02076 | -115.37456 | 34° | 57km/h | 16910m | 5.3m/s | -53.6°C | 1.5% | 0hPa | 0V | 00:00:00 | 00:00:00 | 00:00:00 | |
| KE7DJD | 2026-09-03 17:57:32 | 44.01866 | -115.37671 | 46° | 47km/h | 16811m | 5.9m/s | -53.0°C | 1.4% | 0hPa | 0V | 00:00:00 | 00:00:00 | 00:00:00 | |
| KE7DJD | 2026-09-03 17:57:11 | 44.01661 | -115.37890 | 33° | 37km/h | 16704m | 4.1m/s | -53.2°C | 1.5% | 0hPa | 0V | 00:00:00 | 00:00:00 | 00:00:00 | |
| KE7DJD | 2026-09-03 17:56:50 | 44.01467 | -115.38123 | 54° | 57km/h | 16596m | 4.3m/s | -53.2°C | 1.5% | 0hPa | 0V | 00:00:00 | 00:00:00 | 00:00:00 | |
| KE7DJD | 2026-09-03 17:56:30 | 44.01280 | -115.38428 | 55° | 60km/h | 16500m | 4.0m/s | -54.2°C | 1.6% | 0hPa | 0V | 00:00:00 | 00:00:00 | 00:00:00 | |
| KE7DJD | 2026-09-03 17:56:09 | 44.01061 | -115.38871 | 56° | 88km/h | 16401m | 4.3m/s | -55.9°C | 1.7% | 0hPa | 0V | 00:00:00 | 00:00:00 | 00:00:00 | |
| KE7DJD | 2026-09-03 17:55:48 | 44.00810 | -115.39314 | 41° | 68km/h | 16299m | 5.6m/s | -57.3°C | 1.9% | 0hPa | 0V | 00:00:00 | 00:00:00 | 00:00:00 | |
| KE7DJD | 2026-09-03 17:55:27 | 44.00578 | -115.39664 | 54° | 57km/h | 16195m | 4.6m/s | -57.3°C | 1.9% | 0hPa | 0V | 00:00:00 | 00:00:00 | 00:00:00 | |
| KE7DJD | 2026-09-03 17:55:07 | 44.00392 | -115.39970 | 49° | 46km/h | 16097m | 4.8m/s | -57.3°C | 2.0% | 0hPa | 0V | 00:00:00 | 00:00:00 | 00:00:00 | |
| KE7DJD | 2026-09-03 17:54:47 | 44.00236 | -115.40243 | 60° | 44km/h | 16001m | 5.0m/s | -56.7°C | 1.9% | 0hPa | 0V | 00:00:00 | 00:00:00 | 00:00:00 | |
| KE7DJD | 2026-09-03 17:54:26 | 44.00100 | -115.40517 | 67° | 38km/h | 15893m | 5.5m/s | -56.2°C | 1.9% | 0hPa | 0V | 00:00:00 | 00:00:00 | 00:00:00 | |
| KE7DJD | 2026-09-03 17:54:06 | 44.00002 | -115.40802 | 66° | 53km/h | 15792m | 3.9m/s | -56.3°C | 1.9% | 0hPa | 0V | 00:00:00 | 00:00:00 | 00:00:00 | |
| KE7DJD | 2026-09-03 17:53:26 | 43.99736 | -115.41603 | 65° | 62km/h | 15594m | 3.7m/s | -55.2°C | 1.9% | 0hPa | 0V | 00:00:00 | 00:00:00 | 00:00:00 | |
| KE7DJD | 2026-09-03 17:53:05 | 43.99575 | -115.42017 | 57° | 66km/h | 15489m | 5.1m/s | -55.2°C | 1.9% | 0hPa | 0V | 00:00:00 | 00:00:00 | 00:00:00 | |
| KE7DJD | 2026-09-03 17:52:45 | 43.99407 | -115.42430 | 60° | 75km/h | 15393m | 6.1m/s | -55.9°C | 2.1% | 0hPa | 0V | 00:00:00 | 00:00:00 | 00:00:00 | |
| KE7DJD | 2026-09-03 17:52:24 | 43.99219 | -115.42898 | 62° | 68km/h | 15290m | 5.1m/s | -56.2°C | 2.3% | 0hPa | 0V | 00:00:00 | 00:00:00 | 00:00:00 | |
| KE7DJD | 2026-09-03 17:52:04 | 43.99063 | -115.43307 | 67° | 66km/h | 15195m | 5.1m/s | -56.1°C | 2.4% | 0hPa | 0V | 00:00:00 | 00:00:00 | 00:00:00 | |
| KE7DJD | 2026-09-03 17:51:43 | 43.98942 | -115.43806 | 76° | 77km/h | 15093m | 3.4m/s | -55.8°C | 2.4% | 0hPa | 0V | 00:00:00 | 00:00:00 | 00:00:00 | |
| KE7DJD | 2026-09-03 17:51:22 | 43.98841 | -115.44366 | 72° | 84km/h | 14993m | 5.1m/s | -55.8°C | 2.4% | 0hPa | 0V | 00:00:00 | 00:00:00 | 00:00:00 | |
| KE7DJD | 2026-09-03 17:51:02 | 43.98713 | -115.44930 | 76° | 78km/h | 14903m | 4.6m/s | -55.6°C | 2.5% | 0hPa | 0V | 00:00:00 | 00:00:00 | 00:00:00 | |
| KE7DJD | 2026-09-03 17:50:21 | 43.98322 | -115.46025 | 59° | 84km/h | 14715m | 3.4m/s | -56.0°C | 2.6% | 0hPa | 0V | 00:00:00 | 00:00:00 | 00:00:00 | |
| KE7DJD | 2026-09-03 17:50:01 | 43.98130 | -115.46520 | 62° | 88km/h | 14627m | 5.8m/s | -55.2°C | 2.5% | 0hPa | 0V | 00:00:00 | 00:00:00 | 00:00:00 | |
| KE7DJD | 2026-09-03 17:49:40 | 43.97961 | -115.47047 | 74° | 73km/h | 14528m | 3.8m/s | -54.6°C | 2.5% | 0hPa | 0V | 00:00:00 | 00:00:00 | 00:00:00 | |
| KE7DJD | 2026-09-03 17:49:20 | 43.97830 | -115.47587 | 76° | 80km/h | 14432m | 5.8m/s | -55.1°C | 2.6% | 0hPa | 0V | 00:00:00 | 00:00:00 | 00:00:00 | |
| KE7DJD | 2026-09-03 17:48:59 | 43.97704 | -115.48173 | 76° | 80km/h | 14337m | 5.2m/s | -54.6°C | 2.5% | 0hPa | 0V | 00:00:00 | 00:00:00 | 00:00:00 | |
| KE7DJD | 2026-09-03 17:48:38 | 43.97570 | -115.48731 | 71° | 77km/h | 14242m | 5.5m/s | -54.5°C | 2.6% | 0hPa | 0V | 00:00:00 | 00:00:00 | 00:00:00 | |
| KE7DJD | 2026-09-03 17:47:56 | 43.97322 | -115.49883 | 79° | 91km/h | 14056m | 3.8m/s | -53.6°C | 2.6% | 0hPa | 0V | 00:00:00 | 00:00:00 | 00:00:00 | |
| KE7DJD | 2026-09-03 17:47:35 | 43.97238 | -115.50568 | 80° | 95km/h | 13960m | 5.8m/s | -53.5°C | 2.7% | 0hPa | 0V | 00:00:00 | 00:00:00 | 00:00:00 | |
| KE7DJD | 2026-09-03 17:47:15 | 43.97149 | -115.51314 | 78° | 102km/h | 13862m | 3.7m/s | -53.8°C | 2.9% | 0hPa | 0V | 00:00:00 | 00:00:00 | 00:00:00 | |
| KE7DJD | 2026-09-03 17:46:54 | 43.97018 | -115.52086 | 77° | 122km/h | 13766m | 3.6m/s | -53.7°C | 3.1% | 0hPa | 0V | 00:00:00 | 00:00:00 | 00:00:00 | |
| KE7DJD | 2026-09-03 17:46:33 | 43.96839 | -115.52919 | 76° | 117km/h | 13662m | 6.6m/s | -53.5°C | 3.3% | 0hPa | 0V | 00:00:00 | 00:00:00 | 00:00:00 | |
| KE7DJD | 2026-09-03 17:46:13 | 43.96587 | -115.53718 | 64° | 128km/h | 13558m | 5.4m/s | -54.1°C | 3.7% | 0hPa | 0V | 00:00:00 | 00:00:00 | 00:00:00 | |
| KE7DJD | 2026-09-03 17:45:53 | 43.96258 | -115.54461 | 52° | 115km/h | 13456m | 4.5m/s | -55.4°C | 4.3% | 0hPa | 0V | 00:00:00 | 00:00:00 | 00:00:00 | |
| KE7DJD | 2026-09-03 17:45:32 | 43.95820 | -115.55130 | 47° | 120km/h | 13359m | 5.0m/s | -54.7°C | 4.3% | 0hPa | 0V | 00:00:00 | 00:00:00 | 00:00:00 | |
| KE7DJD | 2026-09-03 17:45:12 | 43.95386 | -115.55741 | 42° | 120km/h | 13271m | 3.7m/s | -54.1°C | 4.1% | 0hPa | 0V | 00:00:00 | 00:00:00 | 00:00:00 | |
| KE7DJD | 2026-09-03 17:44:52 | 43.94955 | -115.56317 | 43° | 110km/h | 13183m | 5.5m/s | -53.8°C | 4.2% | 0hPa | 0V | 00:00:00 | 00:00:00 | 00:00:00 | |
| KE7DJD | 2026-09-03 17:44:31 | 43.94527 | -115.56841 | 39° | 102km/h | 13090m | 5.8m/s | -53.8°C | 4.2% | 0hPa | 0V | 00:00:00 | 00:00:00 | 00:00:00 | |
| KE7DJD | 2026-09-03 17:44:11 | 43.94164 | -115.57335 | 48° | 100km/h | 13003m | 4.6m/s | -53.1°C | 4.3% | 0hPa | 0V | 00:00:00 | 00:00:00 | 00:00:00 | |
| KE7DJD | 2026-09-03 17:43:50 | 43.93807 | -115.57857 | 53° | 97km/h | 12913m | 3.7m/s | -52.9°C | 4.4% | 0hPa | 0V | 00:00:00 | 00:00:00 | 00:00:00 | |
| KE7DJD | 2026-09-03 17:43:30 | 43.93482 | -115.58361 | 55° | 95km/h | 12829m | 4.9m/s | -52.6°C | 4.6% | 0hPa | 0V | 00:00:00 | 00:00:00 | 00:00:00 | |
| KE7DJD | 2026-09-03 17:43:10 | 43.93199 | -115.58870 | 58° | 89km/h | 12737m | 4.5m/s | -52.2°C | 4.4% | 0hPa | 0V | 00:00:00 | 00:00:00 | 00:00:00 | |
| KE7DJD | 2026-09-03 17:42:49 | 43.92914 | -115.59434 | 53° | 100km/h | 12642m | 5.1m/s | -51.6°C | 4.3% | 0hPa | 0V | 00:00:00 | 00:00:00 | 00:00:00 | |
| KE7DJD | 2026-09-03 17:42:30 | 43.92619 | -115.59978 | 57° | 97km/h | 12543m | 5.7m/s | -50.7°C | 4.1% | 0hPa | 0V | 00:00:00 | 00:00:00 | 00:00:00 | |
| KE7DJD | 2026-09-03 17:42:09 | 43.92316 | -115.60579 | 59° | 102km/h | 12447m | 4.2m/s | -50.4°C | 4.3% | 0hPa | 0V | 00:00:00 | 00:00:00 | 00:00:00 | |
| KE7DJD | 2026-09-03 17:41:48 | 43.92045 | -115.61188 | 65° | 102km/h | 12356m | 4.4m/s | -50.1°C | 4.7% | 0hPa | 0V | 00:00:00 | 00:00:00 | 00:00:00 | |
| KE7DJD | 2026-09-03 17:41:27 | 43.91782 | -115.61870 | 64° | 104km/h | 12258m | 5.3m/s | -50.3°C | 5.6% | 0hPa | 0V | 00:00:00 | 00:00:00 | 00:00:00 | |
| KE7DJD | 2026-09-03 17:41:07 | 43.91530 | -115.62566 | 63° | 113km/h | 12162m | 6.0m/s | -50.4°C | 6.9% | 0hPa | 0V | 00:00:00 | 00:00:00 | 00:00:00 | |
| KE7DJD | 2026-09-03 17:40:46 | 43.91238 | -115.63384 | 67° | 126km/h | 12058m | 4.8m/s | -51.2°C | 9.2% | 0hPa | 0V | 00:00:00 | 00:00:00 | 00:00:00 | |
| KE7DJD | 2026-09-03 17:40:25 | 43.90933 | -115.64292 | 65° | 135km/h | 11946m | 4.4m/s | -50.5°C | 9.4% | 0hPa | 0V | 00:00:00 | 00:00:00 | 00:00:00 | |
| KE7DJD | 2026-09-03 17:40:05 | 43.90593 | -115.65173 | 66° | 151km/h | 11846m | 6.5m/s | -50.4°C | 11.3% | 0hPa | 0V | 00:00:00 | 00:00:00 | 00:00:00 | |
| KE7DJD | 2026-09-03 17:39:43 | 43.90142 | -115.66123 | 51° | 150km/h | 11709m | 3.6m/s | -51.9°C | 18.2% | 0hPa | 0V | 00:00:00 | 00:00:00 | 00:00:00 | |
| KE7DJD | 2026-09-03 17:39:22 | 43.89626 | -115.67030 | 52° | 161km/h | 11610m | 7.2m/s | -52.7°C | 34.6% | 0hPa | 0V | 00:00:00 | 00:00:00 | 00:00:00 | |
| KE7DJD | 2026-09-03 17:39:02 | 43.89050 | -115.67939 | 53° | 164km/h | 11514m | 3.7m/s | -52.3°C | 40.3% | 0hPa | 0V | 00:00:00 | 00:00:00 | 00:00:00 | |
| KE7DJD | 2026-09-03 17:38:41 | 43.88518 | -115.68806 | 52° | 164km/h | 11425m | 4.1m/s | -51.7°C | 41.1% | 0hPa | 0V | 00:00:00 | 00:00:00 | 00:00:00 | |
| KE7DJD | 2026-09-03 17:38:20 | 43.87976 | -115.69731 | 51° | 155km/h | 11330m | 3.6m/s | -51.0°C | 34.4% | 0hPa | 0V | 00:00:00 | 00:00:00 | 00:00:00 | |
| KE7DJD | 2026-09-03 17:38:00 | 43.87447 | -115.70618 | 53° | 170km/h | 11243m | 3.5m/s | -50.6°C | 46.5% | 0hPa | 0V | 00:00:00 | 00:00:00 | 00:00:00 | |
| KE7DJD | 2026-09-03 17:37:39 | 43.86883 | -115.71549 | 49° | 159km/h | 11154m | 3.1m/s | -49.8°C | 44.4% | 0hPa | 0V | 00:00:00 | 00:00:00 | 00:00:00 | |
| KE7DJD | 2026-09-03 17:37:18 | 43.86307 | -115.72478 | 49° | 164km/h | 11064m | 4.1m/s | -49.3°C | 33.6% | 0hPa | 0V | 00:00:00 | 00:00:00 | 00:00:00 | |
| KE7DJD | 2026-09-03 17:36:58 | 43.85755 | -115.73363 | 51° | 170km/h | 10979m | 5.0m/s | -48.5°C | 38.7% | 0hPa | 0V | 00:00:00 | 00:00:00 | 00:00:00 | |
| KE7DJD | 2026-09-03 17:36:37 | 43.85174 | -115.74306 | 51° | 170km/h | 10891m | 4.2m/s | -47.8°C | 41.2% | 0hPa | 0V | 00:00:00 | 00:00:00 | 00:00:00 | |
| KE7DJD | 2026-09-03 17:36:16 | 43.84591 | -115.75278 | 52° | 170km/h | 10801m | 6.0m/s | -47.1°C | 43.8% | 0hPa | 0V | 00:00:00 | 00:00:00 | 00:00:00 | |
| KE7DJD | 2026-09-03 17:35:56 | 43.84030 | -115.76192 | 53° | 170km/h | 10709m | 3.9m/s | -46.3°C | 41.0% | 0hPa | 0V | 00:00:00 | 00:00:00 | 00:00:00 | |
| KE7DJD | 2026-09-03 17:35:35 | 43.83448 | -115.77155 | 52° | 170km/h | 10617m | 4.5m/s | -45.5°C | 35.2% | 0hPa | 0V | 00:00:00 | 00:00:00 | 00:00:00 | |
| KE7DJD | 2026-09-03 17:34:54 | 43.82362 | -115.78976 | 50° | 166km/h | 10432m | 4.3m/s | -44.2°C | 18.4% | 0hPa | 0V | 00:00:00 | 00:00:00 | 00:00:00 | |
| KE7DJD | 2026-09-03 17:34:34 | 43.81848 | -115.79831 | 49° | 151km/h | 10339m | 4.4m/s | -43.8°C | 21.4% | 0hPa | 0V | 00:00:00 | 00:00:00 | 00:00:00 | |
| KE7DJD | 2026-09-03 17:34:14 | 43.81325 | -115.80683 | 49° | 164km/h | 10247m | 5.6m/s | -43.1°C | 15.0% | 0hPa | 0V | 00:00:00 | 00:00:00 | 00:00:00 | |
| KE7DJD | 2026-09-03 17:33:53 | 43.80790 | -115.81559 | 49° | 155km/h | 10147m | 4.0m/s | -42.1°C | 16.0% | 0hPa | 0V | 00:00:00 | 00:00:00 | 00:00:00 | |
| KE7DJD | 2026-09-03 17:33:32 | 43.80278 | -115.82417 | 51° | 162km/h | 10048m | 6.1m/s | -41.2°C | 12.5% | 0hPa | 0V | 00:00:00 | 00:00:00 | 00:00:00 | |
| KE7DJD | 2026-09-03 17:33:12 | 43.79797 | -115.83196 | 52° | 133km/h | 9932m | 4.9m/s | -40.8°C | 12.6% | 0hPa | 0V | 00:00:00 | 00:00:00 | 00:00:00 | |
| KE7DJD | 2026-09-03 17:32:51 | 43.79306 | -115.83977 | 48° | 135km/h | 9836m | 3.9m/s | -40.0°C | 12.0% | 0hPa | 0V | 00:00:00 | 00:00:00 | 00:00:00 | |
| KE7DJD | 2026-09-03 17:32:31 | 43.78861 | -115.84746 | 52° | 144km/h | 9741m | 4.6m/s | -39.0°C | 11.2% | 0hPa | 0V | 00:00:00 | 00:00:00 | 00:00:00 | |
| KE7DJD | 2026-09-03 17:32:10 | 43.78415 | -115.85550 | 52° | 148km/h | 9646m | 4.0m/s | -38.3°C | 11.0% | 0hPa | 0V | 00:00:00 | 00:00:00 | 00:00:00 | |
| KE7DJD | 2026-09-03 17:31:50 | 43.77998 | -115.86315 | 55° | 130km/h | 9556m | 5.4m/s | -37.9°C | 12.5% | 0hPa | 0V | 00:00:00 | 00:00:00 | 00:00:00 | |
| KE7DJD | 2026-09-03 17:31:29 | 43.77565 | -115.87115 | 54° | 135km/h | 9459m | 4.9m/s | -37.1°C | 11.9% | 0hPa | 0V | 00:00:00 | 00:00:00 | 00:00:00 | |
| KE7DJD | 2026-09-03 17:31:08 | 43.77132 | -115.87905 | 54° | 131km/h | 9363m | 4.0m/s | -36.3°C | 11.5% | 0hPa | 0V | 00:00:00 | 00:00:00 | 00:00:00 | |
| KE7DJD | 2026-09-03 17:30:47 | 43.76688 | -115.88694 | 53° | 142km/h | 9268m | 5.5m/s | -35.6°C | 10.6% | 0hPa | 0V | 00:00:00 | 00:00:00 | 00:00:00 | |
| KE7DJD | 2026-09-03 17:30:27 | 43.76271 | -115.89465 | 54° | 141km/h | 9181m | 4.4m/s | -34.7°C | 10.2% | 0hPa | 0V | 00:00:00 | 00:00:00 | 00:00:00 | |
| KE7DJD | 2026-09-03 17:29:46 | 43.75431 | -115.91034 | 56° | 139km/h | 8992m | 5.4m/s | -33.3°C | 8.1% | 0hPa | 0V | 00:00:00 | 00:00:00 | 00:00:00 | |
| KE7DJD | 2026-09-03 17:29:25 | 43.75018 | -115.91856 | 55° | 144km/h | 8898m | 4.3m/s | -32.5°C | 7.5% | 0hPa | 0V | 00:00:00 | 00:00:00 | 00:00:00 | |
| KE7DJD | 2026-09-03 17:29:04 | 43.74596 | -115.92684 | 56° | 137km/h | 8804m | 4.1m/s | -31.6°C | 6.5% | 0hPa | 0V | 00:00:00 | 00:00:00 | 00:00:00 | |
| KE7DJD | 2026-09-03 17:28:43 | 43.74192 | -115.93510 | 57° | 141km/h | 8711m | 3.7m/s | -30.7°C | 6.3% | 0hPa | 0V | 00:00:00 | 00:00:00 | 00:00:00 | |
| KE7DJD | 2026-09-03 17:28:22 | 43.73784 | -115.94335 | 55° | 137km/h | 8621m | 3.2m/s | -29.9°C | 5.9% | 0hPa | 0V | 00:00:00 | 00:00:00 | 00:00:00 | |
| KE7DJD | 2026-09-03 17:28:01 | 43.73373 | -115.95164 | 54° | 141km/h | 8532m | 5.0m/s | -29.3°C | 5.6% | 0hPa | 0V | 00:00:00 | 00:00:00 | 00:00:00 | |
| KE7DJD | 2026-09-03 17:27:40 | 43.72957 | -115.95984 | 57° | 139km/h | 8439m | 4.1m/s | -29.1°C | 7.7% | 0hPa | 0V | 00:00:00 | 00:00:00 | 00:00:00 | |
| KE7DJD | 2026-09-03 17:27:20 | 43.72570 | -115.96770 | 55° | 137km/h | 8348m | 4.5m/s | -29.0°C | 11.3% | 0hPa | 0V | 00:00:00 | 00:00:00 | 00:00:00 | |
| KE7DJD | 2026-09-03 17:26:59 | 43.72195 | -115.97574 | 61° | 128km/h | 8243m | 5.2m/s | -28.6°C | 18.7% | 0hPa | 0V | 00:00:00 | 00:00:00 | 00:00:00 | |
| KE7DJD | 2026-09-03 17:26:39 | 43.71858 | -115.98320 | 59° | 119km/h | 8152m | 2.9m/s | -27.9°C | 21.1% | 0hPa | 0V | 00:00:00 | 00:00:00 | 00:00:00 | |
| KE7DJD | 2026-09-03 17:26:18 | 43.71496 | -115.99084 | 55° | 130km/h | 8060m | 3.8m/s | -27.2°C | 42.5% | 0hPa | 0V | 00:00:00 | 00:00:00 | 00:00:00 | |
| KE7DJD | 2026-09-03 17:25:58 | 43.71133 | -115.99817 | 56° | 117km/h | 7967m | 4.4m/s | -27.0°C | 49.3% | 0hPa | 0V | 00:00:00 | 00:00:00 | 00:00:00 | |
| KE7DJD | 2026-09-03 17:25:36 | 43.70775 | -116.00531 | 59° | 106km/h | 7871m | 3.8m/s | -26.0°C | 51.9% | 0hPa | 0V | 00:00:00 | 00:00:00 | 00:00:00 | |
| KE7DJD | 2026-09-03 17:25:16 | 43.70435 | -116.01200 | 60° | 119km/h | 7781m | 4.5m/s | -25.3°C | 45.3% | 0hPa | 0V | 00:00:00 | 00:00:00 | 00:00:00 | |
| KE7DJD | 2026-09-03 17:24:55 | 43.70079 | -116.01919 | 57° | 130km/h | 7685m | 4.6m/s | -24.7°C | 43.7% | 0hPa | 0V | 00:00:00 | 00:00:00 | 00:00:00 | |
| KE7DJD | 2026-09-03 17:24:34 | 43.69755 | -116.02638 | 63° | 113km/h | 7574m | 4.2m/s | -24.0°C | 38.4% | 0hPa | 0V | 00:00:00 | 00:00:00 | 00:00:00 | |
| KE7DJD | 2026-09-03 17:23:54 | 43.69161 | -116.04005 | 58° | 102km/h | 7393m | 4.2m/s | -22.9°C | 35.4% | 0hPa | 0V | 00:00:00 | 00:00:00 | 00:00:00 | |
| KE7DJD | 2026-09-03 17:23:33 | 43.68842 | -116.04677 | 56° | 113km/h | 7305m | 5.2m/s | -22.5°C | 35.4% | 0hPa | 0V | 00:00:00 | 00:00:00 | 00:00:00 | |
| KE7DJD | 2026-09-03 17:23:13 | 43.68537 | -116.05290 | 60° | 104km/h | 7215m | 4.0m/s | -21.8°C | 35.3% | 0hPa | 0V | 00:00:00 | 00:00:00 | 00:00:00 | |
| KE7DJD | 2026-09-03 17:22:52 | 43.68206 | -116.05914 | 58° | 108km/h | 7122m | 5.4m/s | -21.1°C | 35.6% | 0hPa | 0V | 00:00:00 | 00:00:00 | 00:00:00 | |
| KE7DJD | 2026-09-03 17:22:31 | 43.67879 | -116.06502 | 52° | 100km/h | 7015m | 5.3m/s | -20.5°C | 38.3% | 0hPa | 0V | 00:00:00 | 00:00:00 | 00:00:00 | |
| KE7DJD | 2026-09-03 17:22:12 | 43.67568 | -116.07027 | 52° | 97km/h | 6911m | 5.3m/s | -19.7°C | 36.5% | 0hPa | 0V | 00:00:00 | 00:00:00 | 00:00:00 | |
| KE7DJD | 2026-09-03 17:21:50 | 43.67248 | -116.07619 | 48° | 104km/h | 6795m | 6.1m/s | -18.7°C | 39.8% | 0hPa | 0V | 00:00:00 | 00:00:00 | 00:00:00 | |
| KE7DJD | 2026-09-03 17:21:30 | 43.66877 | -116.08164 | 44° | 95km/h | 6688m | 4.2m/s | -18.0°C | 36.8% | 0hPa | 0V | 00:00:00 | 00:00:00 | 00:00:00 | |
| KE7DJD | 2026-09-03 17:21:08 | 43.66526 | -116.08730 | 46° | 104km/h | 6579m | 5.0m/s | -17.1°C | 32.9% | 0hPa | 0V | 00:00:00 | 00:00:00 | 00:00:00 | |
| KE7DJD | 2026-09-03 17:20:26 | 43.65843 | -116.09916 | 56° | 102km/h | 6377m | 8.3m/s | -15.9°C | 29.8% | 0hPa | 0V | 00:00:00 | 00:00:00 | 00:00:00 | |
| KE7DJD | 2026-09-03 17:20:05 | 43.65542 | -116.10479 | 58° | 106km/h | 6264m | 5.2m/s | -15.8°C | 33.8% | 0hPa | 0V | 00:00:00 | 00:00:00 | 00:00:00 | |
| KE7DJD | 2026-09-03 17:19:44 | 43.65304 | -116.11095 | 69° | 86km/h | 6159m | 4.2m/s | -15.9°C | 40.1% | 0hPa | 0V | 00:00:00 | 00:00:00 | 00:00:00 | |
| KE7DJD | 2026-09-03 17:19:24 | 43.65078 | -116.11633 | 66° | 95km/h | 6073m | 3.8m/s | -15.7°C | 48.5% | 0hPa | 0V | 00:00:00 | 00:00:00 | 00:00:00 | |
| KE7DJD | 2026-09-03 17:19:04 | 43.64904 | -116.12138 | 61° | 69km/h | 5975m | 6.4m/s | -15.4°C | 51.1% | 0hPa | 0V | 00:00:00 | 00:00:00 | 00:00:00 | |
| KE7DJD | 2026-09-03 17:18:43 | 43.64733 | -116.12646 | 57° | 77km/h | 5873m | 5.4m/s | -15.0°C | 47.9% | 0hPa | 0V | 00:00:00 | 00:00:00 | 00:00:00 | |
| KE7DJD | 2026-09-03 17:18:02 | 43.64314 | -116.13444 | 57° | 66km/h | 5652m | 5.6m/s | -13.3°C | 31.4% | 0hPa | 0V | 00:00:00 | 00:00:00 | 00:00:00 | |
| KE7DJD | 2026-09-03 17:17:42 | 43.64045 | -116.13851 | 54° | 75km/h | 5528m | 6.9m/s | -12.1°C | 23.2% | 0hPa | 0V | 00:00:00 | 00:00:00 | 00:00:00 | |
| KE7DJD | 2026-09-03 17:17:22 | 43.63749 | -116.14246 | 51° | 80km/h | 5432m | 4.0m/s | -11.3°C | 20.9% | 0hPa | 0V | 00:00:00 | 00:00:00 | 00:00:00 | |
| KE7DJD | 2026-09-03 17:16:42 | 43.63197 | -116.15134 | 50° | 89km/h | 5232m | 5.4m/s | -9.8°C | 13.5% | 0hPa | 0V | 00:00:00 | 00:00:00 | 00:00:00 | |
| KE7DJD | 2026-09-03 17:16:21 | 43.62890 | -116.15556 | 46° | 73km/h | 5118m | 4.5m/s | -11.2°C | 29.8% | 0hPa | 0V | 00:00:00 | 00:00:00 | 00:00:00 | |
| KE7DJD | 2026-09-03 17:16:01 | 43.62609 | -116.15948 | 51° | 68km/h | 5011m | 5.7m/s | -13.0°C | 99.0% | 0hPa | 0V | 00:00:00 | 00:00:00 | 00:00:00 | |
| KE7DJD | 2026-09-03 17:15:40 | 43.62352 | -116.16291 | 52° | 75km/h | 4868m | 6.5m/s | -11.9°C | 98.1% | 0hPa | 0V | 00:00:00 | 00:00:00 | 00:00:00 | |
| KE7DJD | 2026-09-03 17:15:19 | 43.62067 | -116.16657 | 56° | 68km/h | 4735m | 7.1m/s | -10.8°C | 91.5% | 0hPa | 0V | 00:00:00 | 00:00:00 | 00:00:00 | |
| KE7DJD | 2026-09-03 17:14:58 | 43.61805 | -116.17009 | 32° | 71km/h | 4626m | 5.2m/s | -9.8°C | 87.5% | 0hPa | 0V | 00:00:00 | 00:00:00 | 00:00:00 | |
| KE7DJD | 2026-09-03 17:14:37 | 43.61506 | -116.17342 | 36° | 53km/h | 4511m | 6.7m/s | -8.8°C | 81.8% | 0hPa | 0V | 00:00:00 | 00:00:00 | 00:00:00 | |
| KE7DJD | 2026-09-03 17:14:17 | 43.61187 | -116.17660 | 39° | 60km/h | 4409m | 4.9m/s | -7.8°C | 77.5% | 0hPa | 0V | 00:00:00 | 00:00:00 | 00:00:00 | |
| KE7DJD | 2026-09-03 17:13:57 | 43.60913 | -116.17976 | 51° | 78km/h | 4288m | 7.8m/s | -7.0°C | 83.1% | 0hPa | 0V | 00:00:00 | 00:00:00 | 00:00:00 | |
| KE7DJD | 2026-09-03 17:13:36 | 43.60678 | -116.18288 | 46° | 80km/h | 4161m | 8.1m/s | -6.1°C | 84.1% | 0hPa | 0V | 00:00:00 | 00:00:00 | 00:00:00 | |
| KE7DJD | 2026-09-03 17:13:15 | 43.60451 | -116.18611 | 37° | 64km/h | 4029m | 5.8m/s | -5.1°C | 78.2% | 0hPa | 0V | 00:00:00 | 00:00:00 | 00:00:00 | |
| KE7DJD | 2026-09-03 17:12:54 | 43.60238 | -116.18947 | 59° | 71km/h | 3904m | 5.2m/s | -4.2°C | 72.0% | 0hPa | 0V | 00:00:00 | 00:00:00 | 00:00:00 | |
| KE7DJD | 2026-09-03 17:12:33 | 43.60057 | -116.19268 | 57° | 55km/h | 3792m | 6.8m/s | -3.7°C | 74.3% | 0hPa | 0V | 00:00:00 | 00:00:00 | 00:00:00 | |
| KE7DJD | 2026-09-03 17:12:12 | 43.59866 | -116.19524 | 47° | 60km/h | 3675m | 4.7m/s | -3.9°C | 97.9% | 0hPa | 0V | 00:00:00 | 00:00:00 | 00:00:00 | |
| KE7DJD | 2026-09-03 17:11:52 | 43.59712 | -116.19725 | 43° | 27km/h | 3554m | 4.8m/s | -3.0°C | 97.5% | 0hPa | 0V | 00:00:00 | 00:00:00 | 00:00:00 | |
| KE7DJD | 2026-09-03 17:11:32 | 43.59557 | -116.19936 | 26° | 40km/h | 3439m | 6.1m/s | -2.2°C | 97.6% | 0hPa | 0V | 00:00:00 | 00:00:00 | 00:00:00 | |
| KE7DJD | 2026-09-03 17:11:11 | 43.59413 | -116.20130 | 47° | 40km/h | 3328m | 4.9m/s | -1.3°C | 95.1% | 0hPa | 0V | 00:00:00 | 00:00:00 | 00:00:00 | |
| KE7DJD | 2026-09-03 17:10:50 | 43.59251 | -116.20293 | 39° | 51km/h | 3190m | 6.9m/s | -0.4°C | 97.5% | 0hPa | 0V | 00:00:00 | 00:00:00 | 00:00:00 | |
| KE7DJD | 2026-09-03 17:10:30 | 43.59076 | -116.20416 | 37° | 29km/h | 3072m | 5.7m/s | 0.4°C | 99.6% | 0hPa | 0V | 00:00:00 | 00:00:00 | 00:00:00 | |
| KE7DJD | 2026-09-03 17:10:09 | 43.58888 | -116.20547 | 12° | 42km/h | 2948m | 5.7m/s | 1.2°C | 96.3% | 0hPa | 0V | 00:00:00 | 00:00:00 | 00:00:00 | |
| KE7DJD | 2026-09-03 17:09:48 | 43.58706 | -116.20693 | 44° | 47km/h | 2823m | 5.3m/s | 2.0°C | 93.8% | 0hPa | 0V | 00:00:00 | 00:00:00 | 00:00:00 | |
| KE7DJD | 2026-09-03 17:09:27 | 43.58514 | -116.20862 | 25° | 35km/h | 2707m | 5.5m/s | 2.7°C | 89.6% | 0hPa | 0V | 00:00:00 | 00:00:00 | 00:00:00 | |
| KE7DJD | 2026-09-03 17:09:07 | 43.58359 | -116.21033 | 40° | 49km/h | 2599m | 4.9m/s | 3.6°C | 85.4% | 0hPa | 0V | 00:00:00 | 00:00:00 | 00:00:00 | |
| KE7DJD | 2026-09-03 17:08:46 | 43.58200 | -116.21189 | 52° | 31km/h | 2485m | 6.6m/s | 4.4°C | 82.6% | 0hPa | 0V | 00:00:00 | 00:00:00 | 00:00:00 | |
| KE7DJD | 2026-09-03 17:08:25 | 43.58068 | -116.21333 | 45° | 22km/h | 2363m | 5.6m/s | 5.3°C | 77.3% | 0hPa | 0V | 00:00:00 | 00:00:00 | 00:00:00 | |
| KE7DJD | 2026-09-03 17:08:04 | 43.57949 | -116.21451 | 34° | 20km/h | 2241m | 5.1m/s | 6.3°C | 73.2% | 0hPa | 0V | 00:00:00 | 00:00:00 | 00:00:00 | |
| KE7DJD | 2026-09-03 17:07:43 | 43.57834 | -116.21554 | 41° | 13km/h | 2120m | 5.2m/s | 7.2°C | 73.3% | 0hPa | 0V | 00:00:00 | 00:00:00 | 00:00:00 | |
| KE7DJD | 2026-09-03 17:07:22 | 43.57753 | -116.21632 | 343° | 13km/h | 2007m | 4.3m/s | 8.1°C | 70.6% | 0hPa | 0V | 00:00:00 | 00:00:00 | 00:00:00 | |
| KE7DJD | 2026-09-03 17:06:41 | 43.57669 | -116.21728 | 360° | 24km/h | 1773m | 6.6m/s | 10.2°C | 62.4% | 0hPa | 0V | 00:00:00 | 00:00:00 | 00:00:00 | |
| KE7DJD | 2026-09-03 17:06:21 | 43.57604 | -116.21764 | 349° | 18km/h | 1665m | 6.1m/s | 11.3°C | 58.4% | 0hPa | 0V | 00:00:00 | 00:00:00 | 00:00:00 | |
| KE7DJD | 2026-09-03 17:06:00 | 43.57515 | -116.21764 | 27° | 24km/h | 1548m | 6.6m/s | 12.4°C | 54.8% | 0hPa | 0V | 00:00:00 | 00:00:00 | 00:00:00 | |
| KE7DJD | 2026-09-03 17:05:41 | 43.57410 | -116.21739 | 315° | 13km/h | 1433m | 7.0m/s | 0°C | 0% | 0hPa | 0V | 00:00:00 | 00:00:00 | 00:00:00 |